Terminal Aerodrome Forecast
Issued by NWS

Home | Current Version | Previous Version | Text Only | Print | Product List | Glossary On
Versions: 1 2 3 4 5 6 7 8 9 10 11 12 13 14 15 16 17 18 19 20 21 22 23 24 25
000
FTUS43 KEAX 262326
TAFSTJ
TAF
KSTJ 262326Z 2700/2724 30011KT 2SM -TSRA SCT015 BKN035CB
     FM270200 17008KT P6SM VCTS FEW025 BKN035CB
      TEMPO 2702/2704 3SM -TSRA BKN035CB
     FM270600 16004KT 4SM BR OVC007
     FM271000 18002KT 2SM BR SCT007 BKN100
     FM271200 22004KT P6SM BKN080=

USA.gov is the U.S. government's official web portal to all federal, state and local government web resources and services.